createdAt,value
2023-02-05T00:00:16.952Z,0.63
2023-02-05T00:02:44.464Z,0.64
2023-02-05T00:05:11.068Z,0.64
2023-02-05T00:07:37.748Z,0.65
2023-02-05T00:10:05.192Z,0.66
2023-02-05T00:12:32.284Z,0.66
2023-02-05T00:14:59.228Z,0.65
2023-02-05T00:17:26.550Z,0.62
2023-02-05T00:19:53.282Z,0.54
2023-02-05T00:22:20.678Z,0.46
2023-02-05T00:24:47.873Z,0.48
2023-02-05T00:27:14.501Z,0.47
2023-02-05T00:29:41.309Z,0.41
2023-02-05T00:32:07.918Z,0.42
2023-02-05T00:34:35.118Z,0.41
2023-02-05T00:37:02.036Z,0.36
2023-02-05T00:39:29.328Z,0.33
2023-02-05T00:41:56.405Z,0.38
2023-02-05T00:44:24.408Z,0.44
2023-02-05T00:46:52.036Z,0.49
2023-02-05T00:49:18.734Z,0.52
2023-02-05T00:51:47.398Z,0.55
2023-02-05T00:54:14.237Z,0.54
2023-02-05T00:56:42.345Z,0.51
2023-02-05T00:59:09.350Z,0.51
2023-02-05T01:01:36.102Z,0.53
2023-02-05T01:04:02.968Z,0.53
2023-02-05T01:06:29.798Z,0.52
2023-02-05T01:08:56.517Z,0.53
2023-02-05T01:11:23.613Z,0.52
2023-02-05T01:13:50.365Z,0.49
2023-02-05T01:16:17.805Z,0.48
2023-02-05T01:18:44.713Z,0.48
2023-02-05T01:21:11.522Z,0.47
2023-02-05T01:23:38.420Z,0.42
2023-02-05T01:26:05.938Z,0.34
2023-02-05T01:28:32.775Z,0.22
2023-02-05T01:31:00.076Z,0.17
2023-02-05T01:33:28.772Z,0.20
2023-02-05T01:35:56.496Z,0.22
2023-02-05T01:38:24.183Z,0.26
2023-02-05T01:40:51.678Z,0.30
2023-02-05T01:43:18.799Z,0.35
2023-02-05T01:45:59.940Z,0.37
2023-02-05T01:48:28.648Z,0.38
2023-02-05T01:50:57.312Z,0.37
2023-02-05T01:53:29.486Z,0.38
2023-02-05T01:56:00.936Z,0.40
2023-02-05T01:58:31.170Z,0.41
2023-02-05T02:00:57.893Z,0.42
2023-02-05T02:03:27.298Z,0.41
2023-02-05T02:05:54.858Z,0.35
2023-02-05T02:08:21.865Z,0.32
2023-02-05T02:10:48.497Z,0.31
2023-02-05T02:13:15.157Z,0.36
2023-02-05T02:15:42.184Z,0.38
2023-02-05T02:18:26.999Z,0.38
2023-02-05T02:21:18.098Z,0.42
2023-02-05T02:24:09.289Z,0.48
2023-02-05T02:27:00.134Z,0.52
2023-02-05T02:29:34.093Z,0.52
2023-02-05T02:32:20.683Z,0.54
2023-02-05T02:34:59.244Z,0.55
2023-02-05T02:37:39.425Z,0.55
2023-02-05T02:40:18.074Z,0.52
2023-02-05T02:42:52.451Z,0.52
2023-02-05T02:45:22.059Z,0.53
2023-02-05T02:47:52.993Z,0.56
2023-02-05T02:50:25.846Z,0.57
2023-02-05T02:52:52.747Z,0.55
2023-02-05T02:55:19.665Z,0.54
2023-02-05T02:57:48.250Z,0.55
2023-02-05T03:00:22.092Z,0.56
2023-02-05T03:02:49.336Z,0.58
2023-02-05T03:05:18.449Z,0.58
2023-02-05T03:07:48.753Z,0.58
2023-02-05T03:10:26.257Z,0.52
2023-02-05T03:12:54.446Z,0.48
2023-02-05T03:15:21.283Z,0.47
2023-02-05T03:17:49.432Z,0.50
2023-02-05T03:20:20.352Z,0.48
2023-02-05T03:22:46.990Z,0.47
2023-02-05T03:25:14.716Z,0.48
2023-02-05T03:27:42.464Z,0.51
2023-02-05T03:30:10.428Z,0.52
2023-02-05T03:32:43.253Z,0.54
2023-02-05T03:35:16.049Z,0.56
2023-02-05T03:38:06.552Z,0.60
2023-02-05T03:40:40.695Z,0.63
2023-02-05T03:43:17.983Z,0.63
2023-02-05T03:45:57.825Z,0.63
2023-02-05T03:48:34.158Z,0.65
2023-02-05T03:51:18.962Z,0.67
2023-02-05T03:54:05.011Z,0.68
2023-02-05T03:56:38.998Z,0.66
2023-02-05T03:59:06.194Z,0.62
2023-02-05T04:01:33.520Z,0.58
2023-02-05T04:04:00.474Z,0.58
2023-02-05T04:06:29.116Z,0.57
2023-02-05T04:08:56.301Z,0.57
2023-02-05T04:11:23.657Z,0.59
2023-02-05T04:13:51.626Z,0.63
2023-02-05T04:16:18.568Z,0.64
2023-02-05T04:18:45.520Z,0.64
2023-02-05T04:21:12.564Z,0.65
2023-02-05T04:23:40.756Z,0.66
2023-02-05T04:26:07.983Z,0.68
2023-02-05T04:28:45.934Z,0.72
2023-02-05T04:31:12.956Z,0.73
2023-02-05T04:33:40.746Z,0.65
2023-02-05T04:36:08.221Z,0.62
2023-02-05T04:38:35.348Z,0.62
2023-02-05T04:41:01.988Z,0.64
2023-02-05T04:43:29.049Z,0.69
2023-02-05T04:45:55.761Z,0.69
2023-02-05T04:48:22.499Z,0.68
2023-02-05T04:50:50.017Z,0.67
2023-02-05T04:53:16.950Z,0.68
2023-02-05T04:55:45.740Z,0.70
2023-02-05T04:58:12.464Z,0.72
2023-02-05T05:00:39.114Z,0.68
2023-02-05T05:03:06.370Z,0.66
2023-02-05T05:05:36.037Z,0.64
2023-02-05T05:08:03.237Z,0.62
2023-02-05T05:10:30.115Z,0.62
2023-02-05T05:12:57.422Z,0.63
2023-02-05T05:15:24.094Z,0.67
2023-02-05T05:17:50.732Z,0.65
2023-02-05T05:20:17.676Z,0.62
2023-02-05T05:22:45.340Z,0.60
2023-02-05T05:25:11.955Z,0.58
2023-02-05T05:27:39.581Z,0.56
2023-02-05T05:30:06.728Z,0.50
2023-02-05T05:32:33.746Z,0.50
2023-02-05T05:35:00.785Z,0.51
2023-02-05T05:37:27.364Z,0.51
2023-02-05T05:40:12.705Z,0.52
2023-02-05T05:42:58.779Z,0.52
2023-02-05T05:45:25.461Z,0.53
2023-02-05T05:47:52.251Z,0.56
2023-02-05T05:50:19.326Z,0.53
2023-02-05T05:52:45.930Z,0.52
2023-02-05T05:55:12.653Z,0.51
2023-02-05T05:57:39.706Z,0.50
2023-02-05T06:00:06.982Z,0.53
2023-02-05T06:02:40.817Z,0.54
2023-02-05T06:05:08.009Z,0.57
2023-02-05T06:07:34.854Z,0.59
2023-02-05T06:10:01.561Z,0.60
2023-02-05T06:12:31.531Z,0.60
2023-02-05T06:14:58.193Z,0.60
2023-02-05T06:17:25.270Z,0.63
2023-02-05T06:19:52.177Z,0.69
2023-02-05T06:22:19.116Z,0.72
2023-02-05T06:24:46.266Z,0.73
2023-02-05T06:27:12.880Z,0.74
2023-02-05T06:29:39.482Z,0.76
2023-02-05T06:32:06.120Z,0.77
2023-02-05T06:34:35.377Z,0.77
2023-02-05T06:37:02.771Z,0.75
2023-02-05T06:39:29.369Z,0.74
2023-02-05T06:41:56.111Z,0.72
2023-02-05T06:44:24.428Z,0.70
2023-02-05T06:46:51.213Z,0.70
2023-02-05T06:49:18.798Z,0.66
2023-02-05T06:51:45.391Z,0.64
2023-02-05T06:54:15.011Z,0.61
2023-02-05T06:56:41.974Z,0.58
2023-02-05T06:59:08.991Z,0.59
2023-02-05T07:01:35.778Z,0.62
2023-02-05T07:04:03.263Z,0.65
2023-02-05T07:06:30.034Z,0.67
2023-02-05T07:08:58.862Z,0.70
2023-02-05T07:11:26.641Z,0.69
2023-02-05T07:13:53.196Z,0.65
2023-02-05T07:16:20.038Z,0.63
2023-02-05T07:18:46.877Z,0.60
2023-02-05T07:21:15.461Z,0.60
2023-02-05T07:23:42.064Z,0.63
2023-02-05T07:26:10.681Z,0.67
2023-02-05T07:28:37.531Z,0.69
2023-02-05T07:31:05.849Z,0.72
2023-02-05T07:33:32.911Z,0.74
2023-02-05T07:36:07.365Z,0.73
2023-02-05T07:38:35.027Z,0.74
2023-02-05T07:41:09.313Z,0.74
2023-02-05T07:43:36.458Z,0.75
2023-02-05T07:46:08.135Z,0.79
2023-02-05T07:48:35.189Z,0.81
2023-02-05T07:51:02.130Z,0.83
2023-02-05T07:53:29.309Z,0.84
2023-02-05T07:55:56.342Z,0.83
2023-02-05T07:58:23.069Z,0.83
2023-02-05T08:00:49.787Z,0.84
2023-02-05T08:03:17.293Z,0.84
2023-02-05T08:05:44.110Z,0.84
2023-02-05T08:08:10.852Z,0.84
2023-02-05T08:10:37.534Z,0.82
2023-02-05T08:13:04.508Z,0.80
2023-02-05T08:15:31.109Z,0.79
2023-02-05T08:17:57.711Z,0.76
2023-02-05T08:20:25.569Z,0.65
2023-02-05T08:22:52.108Z,0.61
2023-02-05T08:25:19.162Z,0.70
2023-02-05T08:27:47.460Z,0.81
2023-02-05T08:30:15.851Z,0.92
2023-02-05T08:32:46.303Z,1.01
2023-02-05T08:35:13.271Z,1.10
2023-02-05T08:37:39.839Z,1.16
2023-02-05T08:40:07.237Z,1.18
2023-02-05T08:42:34.912Z,1.18
2023-02-05T08:45:02.872Z,1.19
2023-02-05T08:47:30.237Z,1.20
2023-02-05T08:49:56.979Z,1.20
2023-02-05T08:52:23.807Z,1.20
2023-02-05T08:54:51.401Z,1.21
2023-02-05T08:57:18.322Z,1.22
2023-02-05T08:59:47.759Z,1.23
2023-02-05T09:02:14.975Z,1.24
2023-02-05T09:04:41.904Z,1.19
2023-02-05T09:07:08.639Z,1.20
2023-02-05T09:09:36.439Z,1.19
2023-02-05T09:12:03.680Z,1.19
2023-02-05T09:14:35.542Z,1.21
2023-02-05T09:17:03.472Z,1.22
2023-02-05T09:19:32.730Z,1.23
2023-02-05T09:21:59.598Z,1.24
2023-02-05T09:24:26.679Z,1.26
2023-02-05T09:26:53.373Z,1.28
2023-02-05T09:29:20.044Z,1.30
2023-02-05T09:31:46.788Z,1.31
2023-02-05T09:34:14.242Z,1.32
2023-02-05T09:36:41.060Z,1.32
2023-02-05T09:39:20.579Z,1.26
2023-02-05T09:42:27.380Z,1.19
2023-02-05T09:45:32.447Z,1.16
2023-02-05T09:48:38.366Z,1.15
2023-02-05T09:51:05.178Z,1.15
2023-02-05T09:53:34.489Z,1.15
2023-02-05T09:56:01.479Z,1.16
2023-02-05T09:58:34.438Z,1.12
2023-02-05T10:01:03.589Z,1.10
2023-02-05T10:03:50.598Z,1.06
2023-02-05T10:07:07.101Z,1.02
2023-02-05T10:09:33.869Z,1.04
2023-02-05T10:12:09.558Z,1.06
2023-02-05T10:14:46.825Z,1.09
2023-02-05T10:17:52.922Z,1.16
2023-02-05T10:20:49.912Z,1.19
2023-02-05T10:23:54.340Z,1.21
2023-02-05T10:26:20.975Z,1.23
2023-02-05T10:29:09.537Z,1.25
2023-02-05T10:31:41.526Z,1.27
2023-02-05T10:34:30.514Z,1.31
2023-02-05T10:36:57.238Z,1.37
2023-02-05T10:39:25.072Z,1.38
2023-02-05T10:42:08.746Z,1.34
2023-02-05T10:45:06.057Z,1.30
2023-02-05T10:47:44.807Z,1.30
2023-02-05T10:50:33.522Z,1.31
2023-02-05T10:53:00.511Z,1.34
2023-02-05T10:55:27.520Z,1.38
2023-02-05T10:57:54.339Z,1.39
2023-02-05T11:00:22.073Z,1.38
2023-02-05T11:02:50.841Z,1.39
2023-02-05T11:05:19.399Z,1.43
2023-02-05T11:07:48.914Z,1.48
2023-02-05T11:10:20.086Z,1.51
2023-02-05T11:12:51.694Z,1.53
2023-02-05T11:15:26.450Z,1.57
2023-02-05T11:18:04.233Z,1.62
2023-02-05T11:20:32.719Z,1.65
2023-02-05T11:23:14.995Z,1.67
2023-02-05T11:25:58.976Z,1.69
2023-02-05T11:28:27.738Z,1.71
2023-02-05T11:30:54.930Z,1.76
2023-02-05T11:33:22.443Z,1.78
2023-02-05T11:35:51.956Z,1.79
2023-02-05T11:38:29.272Z,1.80
2023-02-05T11:41:06.260Z,1.82
2023-02-05T11:43:50.084Z,1.85
2023-02-05T11:46:21.576Z,1.90
2023-02-05T11:48:54.092Z,1.94
2023-02-05T11:51:47.924Z,1.97
2023-02-05T11:54:30.213Z,2.02
2023-02-05T11:57:19.244Z,2.07
2023-02-05T11:59:55.750Z,2.12
2023-02-05T12:02:25.266Z,2.16
2023-02-05T12:05:13.724Z,2.19
2023-02-05T12:08:00.231Z,2.20
2023-02-05T12:11:07.637Z,2.18
2023-02-05T12:14:07.680Z,2.17
2023-02-05T12:16:53.373Z,2.21
2023-02-05T12:19:46.564Z,2.27
2023-02-05T12:22:23.101Z,2.32
2023-02-05T12:24:56.285Z,2.34
2023-02-05T12:27:34.274Z,2.35
2023-02-05T12:30:26.811Z,2.31
2023-02-05T12:33:32.386Z,2.29
2023-02-05T12:36:24.831Z,2.25
2023-02-05T12:39:01.884Z,2.19
2023-02-05T12:42:01.285Z,2.18
2023-02-05T12:44:40.674Z,2.22
2023-02-05T12:47:31.030Z,2.25
2023-02-05T12:50:35.309Z,2.27
2023-02-05T12:53:18.081Z,2.27
2023-02-05T12:56:09.289Z,2.23
2023-02-05T12:58:42.852Z,2.22
2023-02-05T13:01:22.077Z,2.20
2023-02-05T13:03:51.400Z,2.20
2023-02-05T13:06:21.770Z,2.19
2023-02-05T13:08:51.358Z,2.19
2023-02-05T13:11:32.640Z,2.22
2023-02-05T13:14:07.575Z,2.24
2023-02-05T13:17:05.497Z,2.27
2023-02-05T13:19:44.881Z,2.30
2023-02-05T13:22:40.199Z,2.31
2023-02-05T13:26:16.889Z,2.31
2023-02-05T13:29:01.432Z,2.25
2023-02-05T13:31:53.359Z,2.21
2023-02-05T13:34:21.131Z,2.15
2023-02-05T13:37:08.374Z,2.15
2023-02-05T13:39:43.073Z,2.10
2023-02-05T13:42:28.328Z,2.05
2023-02-05T13:45:34.064Z,2.03
2023-02-05T13:48:29.206Z,2.07
2023-02-05T13:51:14.885Z,2.13
2023-02-05T13:53:48.587Z,2.17
2023-02-05T13:56:41.339Z,2.15
2023-02-05T13:59:17.923Z,2.13
2023-02-05T14:01:57.084Z,2.08
2023-02-05T14:04:40.530Z,2.05
2023-02-05T14:07:22.127Z,2.07
2023-02-05T14:09:53.411Z,2.04
2023-02-05T14:12:33.425Z,2.01
2023-02-05T14:15:16.285Z,2.01
2023-02-05T14:17:51.910Z,1.99
2023-02-05T14:20:26.348Z,1.95
2023-02-05T14:23:02.736Z,1.92
2023-02-05T14:25:36.063Z,1.89
2023-02-05T14:28:16.323Z,1.90
2023-02-05T14:30:56.796Z,1.88
2023-02-05T14:33:39.770Z,1.84
2023-02-05T14:36:23.801Z,1.80
2023-02-05T14:38:50.651Z,1.79
2023-02-05T14:41:19.341Z,1.82
2023-02-05T14:44:15.260Z,1.86
2023-02-05T14:46:44.938Z,1.89
2023-02-05T14:49:26.854Z,1.89
2023-02-05T14:52:00.872Z,1.90
2023-02-05T14:54:42.371Z,1.91
2023-02-05T14:57:23.079Z,1.89
2023-02-05T15:00:25.711Z,1.88
2023-02-05T15:03:16.317Z,1.90
2023-02-05T15:05:51.840Z,1.91
2023-02-05T15:08:35.636Z,1.93
2023-02-05T15:11:22.494Z,1.97
2023-02-05T15:14:19.235Z,1.95
2023-02-05T15:17:06.538Z,1.94
2023-02-05T15:19:37.917Z,1.92
2023-02-05T15:22:04.910Z,1.92
2023-02-05T15:24:31.904Z,1.89
2023-02-05T15:27:05.687Z,1.87
2023-02-05T15:29:57.616Z,1.87
2023-02-05T15:32:28.476Z,1.88
2023-02-05T15:35:06.884Z,1.89
2023-02-05T15:37:41.312Z,1.89
2023-02-05T15:40:15.536Z,1.89
2023-02-05T15:42:44.886Z,1.88
2023-02-05T15:45:25.716Z,1.82
2023-02-05T15:48:05.855Z,1.72
2023-02-05T15:51:02.806Z,1.67
2023-02-05T15:53:35.584Z,1.62
2023-02-05T15:56:22.309Z,1.61
2023-02-05T15:59:02.766Z,1.63
2023-02-05T16:01:37.967Z,1.65
2023-02-05T16:04:18.341Z,1.66
2023-02-05T16:06:47.294Z,1.66
2023-02-05T16:09:16.854Z,1.63
2023-02-05T16:11:44.623Z,1.60
2023-02-05T16:14:29.381Z,1.56
2023-02-05T16:17:03.447Z,1.54
2023-02-05T16:19:46.236Z,1.48
2023-02-05T16:22:36.817Z,1.31
2023-02-05T16:25:11.225Z,1.18
2023-02-05T16:27:42.060Z,1.06
2023-02-05T16:30:20.165Z,0.90
2023-02-05T16:32:47.772Z,0.76
2023-02-05T16:35:29.124Z,0.73
2023-02-05T16:37:55.641Z,0.70
2023-02-05T16:40:31.935Z,0.64
2023-02-05T16:42:58.922Z,0.63
2023-02-05T16:45:28.523Z,0.61
2023-02-05T16:48:23.395Z,0.62
2023-02-05T16:50:50.721Z,0.64
2023-02-05T16:53:26.320Z,0.68
2023-02-05T16:56:18.023Z,0.72
2023-02-05T16:58:57.980Z,0.70
2023-02-05T17:01:37.745Z,0.68
2023-02-05T17:04:04.927Z,0.62
2023-02-05T17:06:34.273Z,0.61
2023-02-05T17:09:01.073Z,0.65
2023-02-05T17:11:38.044Z,0.71
2023-02-05T17:14:29.269Z,0.77
2023-02-05T17:17:03.807Z,0.79
2023-02-05T17:19:32.296Z,0.77
2023-02-05T17:22:26.985Z,0.78
2023-02-05T17:24:54.229Z,0.71
2023-02-05T17:27:36.629Z,0.60
2023-02-05T17:30:05.793Z,0.58
2023-02-05T17:32:32.877Z,0.58
2023-02-05T17:35:00.343Z,0.59
2023-02-05T17:37:27.377Z,0.62
2023-02-05T17:39:56.072Z,0.64
2023-02-05T17:42:24.165Z,0.67
2023-02-05T17:44:51.153Z,0.75
2023-02-05T17:47:18.765Z,0.82
2023-02-05T17:49:46.704Z,0.85
2023-02-05T17:52:14.809Z,0.83
2023-02-05T17:54:45.837Z,0.84
2023-02-05T17:57:17.144Z,0.85
2023-02-05T17:59:44.793Z,0.82
2023-02-05T18:02:12.451Z,0.86
2023-02-05T18:04:39.746Z,0.90
2023-02-05T18:07:15.189Z,0.95
2023-02-05T18:09:41.881Z,1.00
2023-02-05T18:12:08.789Z,1.02
2023-02-05T18:14:35.636Z,1.04
2023-02-05T18:17:02.560Z,1.08
2023-02-05T18:19:30.234Z,1.12
2023-02-05T18:21:56.869Z,1.17
2023-02-05T18:24:23.806Z,1.19
2023-02-05T18:26:51.974Z,1.20
2023-02-05T18:29:21.026Z,1.18
2023-02-05T18:31:48.354Z,1.13
2023-02-05T18:34:15.713Z,1.12
2023-02-05T18:36:42.933Z,1.12
2023-02-05T18:39:09.790Z,1.09
2023-02-05T18:41:38.563Z,1.06
2023-02-05T18:44:06.079Z,1.06
2023-02-05T18:46:34.603Z,1.07
2023-02-05T18:49:01.411Z,1.10
2023-02-05T18:51:28.094Z,1.11
2023-02-05T18:53:54.924Z,1.15
2023-02-05T18:56:23.841Z,1.15
2023-02-05T18:58:51.590Z,1.16
2023-02-05T19:01:18.868Z,1.18
2023-02-05T19:03:46.225Z,1.18
2023-02-05T19:06:15.249Z,1.16
2023-02-05T19:08:43.045Z,1.13
2023-02-05T19:11:22.274Z,1.12
2023-02-05T19:13:55.900Z,1.12
2023-02-05T19:16:23.126Z,1.17
2023-02-05T19:18:50.073Z,1.20
2023-02-05T19:21:18.463Z,1.23
2023-02-05T19:23:48.154Z,1.26
2023-02-05T19:26:16.053Z,1.28
2023-02-05T19:28:44.206Z,1.26
2023-02-05T19:31:12.800Z,1.21
2023-02-05T19:33:40.009Z,1.22
2023-02-05T19:36:07.922Z,1.25
2023-02-05T19:38:37.301Z,1.29
2023-02-05T19:41:06.529Z,1.30
2023-02-05T19:43:33.657Z,1.25
2023-02-05T19:46:04.801Z,1.26
2023-02-05T19:48:32.717Z,1.27
2023-02-05T19:51:06.291Z,1.26
2023-02-05T19:53:33.724Z,1.24
2023-02-05T19:56:06.195Z,1.16
2023-02-05T19:58:34.377Z,1.13
2023-02-05T20:01:01.421Z,1.11
2023-02-05T20:03:28.807Z,1.09
2023-02-05T20:06:00.348Z,1.05
2023-02-05T20:08:29.116Z,1.05
2023-02-05T20:10:57.750Z,1.08
2023-02-05T20:13:32.630Z,1.08
2023-02-05T20:16:05.318Z,1.09
2023-02-05T20:18:32.287Z,1.10
2023-02-05T20:21:00.017Z,1.10
2023-02-05T20:23:27.068Z,1.12
2023-02-05T20:25:57.357Z,1.13
2023-02-05T20:28:27.201Z,1.13
2023-02-05T20:31:12.731Z,1.14
2023-02-05T20:33:39.885Z,1.10
2023-02-05T20:36:08.473Z,1.03
2023-02-05T20:38:35.423Z,0.99
2023-02-05T20:41:23.124Z,0.98
2023-02-05T20:43:49.994Z,0.99
2023-02-05T20:46:17.198Z,1.01
2023-02-05T20:48:43.777Z,1.01
2023-02-05T20:51:13.479Z,1.02
2023-02-05T20:53:40.332Z,1.05
2023-02-05T20:56:12.359Z,1.04
2023-02-05T20:58:40.103Z,1.03
2023-02-05T21:01:11.969Z,1.03
2023-02-05T21:03:41.792Z,1.03
2023-02-05T21:06:10.441Z,1.01
2023-02-05T21:08:38.437Z,1.04
2023-02-05T21:11:05.830Z,1.06
2023-02-05T21:13:32.738Z,1.09
2023-02-05T21:15:59.864Z,1.12
2023-02-05T21:18:27.120Z,1.15
2023-02-05T21:20:54.277Z,1.15
2023-02-05T21:23:21.456Z,1.14
2023-02-05T21:25:48.314Z,1.14
2023-02-05T21:28:16.234Z,1.16
2023-02-05T21:30:44.751Z,1.17
2023-02-05T21:33:11.766Z,1.18
2023-02-05T21:35:38.445Z,1.17
2023-02-05T21:38:05.558Z,1.14
2023-02-05T21:40:32.763Z,1.13
2023-02-05T21:42:59.625Z,1.13
2023-02-05T21:45:27.518Z,1.13
2023-02-05T21:47:54.358Z,1.15
2023-02-05T21:50:21.256Z,1.12
2023-02-05T21:52:48.028Z,1.11
2023-02-05T21:55:14.853Z,1.11
2023-02-05T21:57:41.550Z,1.12
2023-02-05T22:00:09.407Z,1.09
2023-02-05T22:02:38.777Z,1.07
2023-02-05T22:05:06.466Z,1.08
2023-02-05T22:07:33.416Z,1.08
2023-02-05T22:10:01.188Z,1.07
2023-02-05T22:12:28.016Z,1.07
2023-02-05T22:14:54.937Z,1.07
2023-02-05T22:17:22.263Z,1.04
2023-02-05T22:19:49.678Z,1.05
2023-02-05T22:22:16.550Z,1.06
2023-02-05T22:24:45.810Z,1.07
2023-02-05T22:27:12.826Z,1.10
2023-02-05T22:29:39.635Z,1.13
2023-02-05T22:32:06.503Z,1.14
2023-02-05T22:34:33.222Z,1.14
2023-02-05T22:37:00.135Z,1.10
2023-02-05T22:39:26.707Z,1.06
2023-02-05T22:41:53.602Z,1.06
2023-02-05T22:44:20.264Z,1.06
2023-02-05T22:46:47.083Z,1.07
2023-02-05T22:49:14.679Z,1.08
2023-02-05T22:51:41.750Z,1.10
2023-02-05T22:54:09.960Z,1.11
2023-02-05T22:56:37.253Z,1.12
2023-02-05T22:59:04.245Z,1.11
2023-02-05T23:01:33.287Z,1.09
2023-02-05T23:04:00.857Z,1.10
2023-02-05T23:06:30.476Z,1.12
2023-02-05T23:08:58.901Z,1.13
2023-02-05T23:11:26.963Z,1.13
2023-02-05T23:13:53.622Z,1.15
2023-02-05T23:16:22.247Z,1.14
2023-02-05T23:18:49.023Z,1.14
2023-02-05T23:21:21.338Z,1.15
2023-02-05T23:23:48.906Z,1.13
2023-02-05T23:26:17.614Z,1.12
2023-02-05T23:28:45.190Z,1.10
2023-02-05T23:31:11.977Z,1.10
2023-02-05T23:33:38.735Z,1.06
2023-02-05T23:36:06.235Z,1.01
2023-02-05T23:38:33.502Z,0.97
2023-02-05T23:41:00.272Z,0.95
2023-02-05T23:43:27.017Z,0.95
2023-02-05T23:45:53.894Z,0.95
2023-02-05T23:48:20.559Z,0.92
2023-02-05T23:50:51.081Z,0.87
2023-02-05T23:53:20.437Z,0.86
2023-02-05T23:55:47.754Z,0.81
2023-02-05T23:58:14.354Z,0.78
